sensor_id;sensor_type;location;lat;lon;timestamp;P1;durP1;ratioP1;P2;durP2;ratioP2
68854;SDS011;69984;-43.570;172.580;2023-05-29T00:01:01;16.42;;;2.38;;
68854;SDS011;69984;-43.570;172.580;2023-05-29T00:03:28;32.67;;;3.63;;
68854;SDS011;69984;-43.570;172.580;2023-05-29T00:05:58;17.50;;;2.85;;
68854;SDS011;69984;-43.570;172.580;2023-05-29T00:08:28;15.80;;;2.45;;
68854;SDS011;69984;-43.570;172.580;2023-05-29T00:10:55;18.83;;;3.25;;
68854;SDS011;69984;-43.570;172.580;2023-05-29T00:13:22;12.80;;;2.78;;
68854;SDS011;69984;-43.570;172.580;2023-05-29T00:15:49;35.10;;;3.47;;
68854;SDS011;69984;-43.570;172.580;2023-05-29T00:18:16;20.90;;;2.55;;
68854;SDS011;69984;-43.570;172.580;2023-05-29T00:20:43;27.83;;;3.58;;
68854;SDS011;69984;-43.570;172.580;2023-05-29T00:23:10;25.70;;;3.42;;
68854;SDS011;69984;-43.570;172.580;2023-05-29T00:25:37;26.98;;;3.53;;
68854;SDS011;69984;-43.570;172.580;2023-05-29T00:28:06;33.63;;;3.53;;
68854;SDS011;69984;-43.570;172.580;2023-05-29T00:30:35;21.60;;;2.70;;
68854;SDS011;69984;-43.570;172.580;2023-05-29T00:33:02;19.00;;;2.97;;
68854;SDS011;69984;-43.570;172.580;2023-05-29T00:35:29;25.23;;;3.13;;
68854;SDS011;69984;-43.570;172.580;2023-05-29T00:37:57;28.35;;;3.25;;
68854;SDS011;69984;-43.570;172.580;2023-05-29T00:40:24;16.13;;;2.60;;
68854;SDS011;69984;-43.570;172.580;2023-05-29T00:42:52;24.52;;;3.55;;
68854;SDS011;69984;-43.570;172.580;2023-05-29T00:45:20;28.05;;;3.28;;
68854;SDS011;69984;-43.570;172.580;2023-05-29T00:47:46;36.05;;;4.05;;
68854;SDS011;69984;-43.570;172.580;2023-05-29T00:50:14;36.78;;;6.63;;
68854;SDS011;69984;-43.570;172.580;2023-05-29T00:52:41;37.72;;;6.78;;
68854;SDS011;69984;-43.570;172.580;2023-05-29T00:55:11;25.73;;;5.00;;
68854;SDS011;69984;-43.570;172.580;2023-05-29T00:57:39;30.48;;;5.05;;
68854;SDS011;69984;-43.570;172.580;2023-05-29T01:00:06;26.02;;;5.15;;
68854;SDS011;69984;-43.570;172.580;2023-05-29T01:02:36;29.42;;;5.72;;
68854;SDS011;69984;-43.570;172.580;2023-05-29T01:05:06;22.50;;;3.28;;
68854;SDS011;69984;-43.570;172.580;2023-05-29T01:07:35;25.33;;;2.42;;
68854;SDS011;69984;-43.570;172.580;2023-05-29T01:10:02;22.23;;;3.17;;
68854;SDS011;69984;-43.570;172.580;2023-05-29T01:12:36;29.15;;;4.72;;
68854;SDS011;69984;-43.570;172.580;2023-05-29T01:17:54;25.45;;;3.83;;
68854;SDS011;69984;-43.570;172.580;2023-05-29T01:20:38;26.45;;;4.03;;
68854;SDS011;69984;-43.570;172.580;2023-05-29T01:26:50;27.98;;;4.75;;
68854;SDS011;69984;-43.570;172.580;2023-05-29T01:29:29;32.03;;;5.35;;
68854;SDS011;69984;-43.570;172.580;2023-05-29T01:31:58;17.02;;;3.40;;
68854;SDS011;69984;-43.570;172.580;2023-05-29T01:34:27;20.70;;;4.07;;
68854;SDS011;69984;-43.570;172.580;2023-05-29T01:36:55;25.17;;;3.85;;
68854;SDS011;69984;-43.570;172.580;2023-05-29T01:39:22;29.73;;;3.80;;
68854;SDS011;69984;-43.570;172.580;2023-05-29T01:41:50;28.25;;;4.13;;
68854;SDS011;69984;-43.570;172.580;2023-05-29T01:44:19;24.77;;;3.42;;
68854;SDS011;69984;-43.570;172.580;2023-05-29T01:46:48;26.20;;;3.60;;
68854;SDS011;69984;-43.570;172.580;2023-05-29T01:49:16;24.90;;;3.50;;
68854;SDS011;69984;-43.570;172.580;2023-05-29T01:51:44;29.50;;;4.10;;
68854;SDS011;69984;-43.570;172.580;2023-05-29T01:54:11;27.02;;;3.85;;
68854;SDS011;69984;-43.570;172.580;2023-05-29T01:56:38;22.77;;;3.55;;
68854;SDS011;69984;-43.570;172.580;2023-05-29T01:59:05;19.15;;;3.55;;
68854;SDS011;69984;-43.570;172.580;2023-05-29T02:01:33;22.83;;;3.65;;
68854;SDS011;69984;-43.570;172.580;2023-05-29T02:04:00;19.88;;;3.05;;
68854;SDS011;69984;-43.570;172.580;2023-05-29T02:06:27;25.45;;;3.78;;
68854;SDS011;69984;-43.570;172.580;2023-05-29T02:08:56;31.10;;;3.97;;
68854;SDS011;69984;-43.570;172.580;2023-05-29T02:11:23;30.40;;;4.28;;
68854;SDS011;69984;-43.570;172.580;2023-05-29T02:13:51;32.83;;;4.32;;
68854;SDS011;69984;-43.570;172.580;2023-05-29T02:16:19;22.13;;;3.65;;
68854;SDS011;69984;-43.570;172.580;2023-05-29T02:18:46;34.17;;;3.92;;
68854;SDS011;69984;-43.570;172.580;2023-05-29T02:21:14;21.33;;;3.97;;
68854;SDS011;69984;-43.570;172.580;2023-05-29T02:23:41;28.08;;;5.82;;
68854;SDS011;69984;-43.570;172.580;2023-05-29T02:26:08;33.25;;;4.93;;
68854;SDS011;69984;-43.570;172.580;2023-05-29T02:28:36;31.38;;;4.28;;
68854;SDS011;69984;-43.570;172.580;2023-05-29T02:31:03;36.65;;;5.18;;
68854;SDS011;69984;-43.570;172.580;2023-05-29T02:33:29;16.55;;;3.05;;
68854;SDS011;69984;-43.570;172.580;2023-05-29T02:35:57;27.60;;;3.55;;
68854;SDS011;69984;-43.570;172.580;2023-05-29T02:38:24;29.88;;;3.42;;
68854;SDS011;69984;-43.570;172.580;2023-05-29T02:40:51;27.77;;;3.95;;
68854;SDS011;69984;-43.570;172.580;2023-05-29T02:43:18;16.63;;;3.30;;
68854;SDS011;69984;-43.570;172.580;2023-05-29T02:45:47;36.30;;;4.07;;
68854;SDS011;69984;-43.570;172.580;2023-05-29T02:48:14;21.75;;;2.92;;
68854;SDS011;69984;-43.570;172.580;2023-05-29T02:50:41;26.60;;;4.45;;
68854;SDS011;69984;-43.570;172.580;2023-05-29T02:53:08;28.75;;;3.20;;
68854;SDS011;69984;-43.570;172.580;2023-05-29T02:55:35;24.15;;;3.33;;
68854;SDS011;69984;-43.570;172.580;2023-05-29T02:58:02;28.00;;;3.58;;
68854;SDS011;69984;-43.570;172.580;2023-05-29T03:00:29;22.50;;;3.40;;
68854;SDS011;69984;-43.570;172.580;2023-05-29T03:02:56;23.08;;;3.50;;
68854;SDS011;69984;-43.570;172.580;2023-05-29T03:05:23;20.42;;;3.75;;
68854;SDS011;69984;-43.570;172.580;2023-05-29T03:07:51;14.52;;;2.63;;
68854;SDS011;69984;-43.570;172.580;2023-05-29T03:10:18;18.50;;;3.22;;
68854;SDS011;69984;-43.570;172.580;2023-05-29T03:12:46;21.08;;;3.13;;
68854;SDS011;69984;-43.570;172.580;2023-05-29T03:15:13;28.15;;;3.03;;
68854;SDS011;69984;-43.570;172.580;2023-05-29T03:17:40;24.38;;;3.10;;
68854;SDS011;69984;-43.570;172.580;2023-05-29T03:20:07;13.98;;;2.30;;
68854;SDS011;69984;-43.570;172.580;2023-05-29T03:22:34;20.23;;;3.25;;
68854;SDS011;69984;-43.570;172.580;2023-05-29T03:25:02;26.52;;;3.50;;
68854;SDS011;69984;-43.570;172.580;2023-05-29T03:27:30;35.15;;;3.63;;
68854;SDS011;69984;-43.570;172.580;2023-05-29T03:29:58;26.70;;;3.42;;
68854;SDS011;69984;-43.570;172.580;2023-05-29T03:32:25;21.75;;;2.67;;
68854;SDS011;69984;-43.570;172.580;2023-05-29T03:34:52;23.35;;;3.47;;
68854;SDS011;69984;-43.570;172.580;2023-05-29T03:37:19;29.13;;;3.13;;
68854;SDS011;69984;-43.570;172.580;2023-05-29T03:39:46;29.33;;;5.00;;
68854;SDS011;69984;-43.570;172.580;2023-05-29T03:42:13;19.65;;;3.08;;
68854;SDS011;69984;-43.570;172.580;2023-05-29T03:44:41;26.80;;;2.85;;
68854;SDS011;69984;-43.570;172.580;2023-05-29T03:47:08;20.83;;;3.40;;
68854;SDS011;69984;-43.570;172.580;2023-05-29T03:49:35;29.45;;;3.95;;
68854;SDS011;69984;-43.570;172.580;2023-05-29T03:52:02;22.17;;;3.33;;
68854;SDS011;69984;-43.570;172.580;2023-05-29T03:54:30;24.65;;;3.85;;
68854;SDS011;69984;-43.570;172.580;2023-05-29T03:56:58;27.75;;;3.47;;
68854;SDS011;69984;-43.570;172.580;2023-05-29T03:59:25;19.50;;;3.03;;
68854;SDS011;69984;-43.570;172.580;2023-05-29T04:01:52;21.92;;;3.78;;
68854;SDS011;69984;-43.570;172.580;2023-05-29T04:04:19;15.48;;;2.65;;
68854;SDS011;69984;-43.570;172.580;2023-05-29T04:06:46;25.58;;;4.15;;
68854;SDS011;69984;-43.570;172.580;2023-05-29T04:09:13;24.25;;;2.95;;
68854;SDS011;69984;-43.570;172.580;2023-05-29T04:11:41;21.15;;;3.35;;
68854;SDS011;69984;-43.570;172.580;2023-05-29T04:14:10;28.65;;;2.85;;
68854;SDS011;69984;-43.570;172.580;2023-05-29T04:16:37;31.33;;;3.50;;
68854;SDS011;69984;-43.570;172.580;2023-05-29T04:19:04;22.17;;;4.15;;
68854;SDS011;69984;-43.570;172.580;2023-05-29T04:21:31;24.05;;;3.22;;
68854;SDS011;69984;-43.570;172.580;2023-05-29T04:23:58;27.38;;;4.07;;
68854;SDS011;69984;-43.570;172.580;2023-05-29T04:26:25;36.35;;;4.75;;
68854;SDS011;69984;-43.570;172.580;2023-05-29T04:28:52;34.22;;;4.45;;
68854;SDS011;69984;-43.570;172.580;2023-05-29T04:31:25;23.50;;;3.67;;
68854;SDS011;69984;-43.570;172.580;2023-05-29T04:33:53;32.15;;;5.43;;
68854;SDS011;69984;-43.570;172.580;2023-05-29T04:36:22;25.38;;;4.30;;
68854;SDS011;69984;-43.570;172.580;2023-05-29T04:38:55;32.53;;;4.60;;
68854;SDS011;69984;-43.570;172.580;2023-05-29T04:41:22;30.10;;;3.83;;
68854;SDS011;69984;-43.570;172.580;2023-05-29T04:43:55;39.40;;;4.63;;
68854;SDS011;69984;-43.570;172.580;2023-05-29T04:46:22;40.97;;;4.63;;
68854;SDS011;69984;-43.570;172.580;2023-05-29T04:48:50;25.38;;;4.00;;
68854;SDS011;69984;-43.570;172.580;2023-05-29T04:51:22;29.83;;;3.83;;
68854;SDS011;69984;-43.570;172.580;2023-05-29T04:53:50;30.40;;;4.35;;
68854;SDS011;69984;-43.570;172.580;2023-05-29T04:56:17;37.75;;;5.55;;
68854;SDS011;69984;-43.570;172.580;2023-05-29T04:58:44;42.10;;;4.97;;
68854;SDS011;69984;-43.570;172.580;2023-05-29T05:01:11;29.42;;;4.43;;
68854;SDS011;69984;-43.570;172.580;2023-05-29T05:03:40;35.60;;;4.65;;
68854;SDS011;69984;-43.570;172.580;2023-05-29T05:06:07;35.33;;;3.33;;
68854;SDS011;69984;-43.570;172.580;2023-05-29T05:08:34;34.15;;;4.70;;
68854;SDS011;69984;-43.570;172.580;2023-05-29T05:11:02;34.75;;;4.68;;
68854;SDS011;69984;-43.570;172.580;2023-05-29T05:13:29;45.58;;;5.15;;
68854;SDS011;69984;-43.570;172.580;2023-05-29T05:15:56;22.88;;;5.05;;
68854;SDS011;69984;-43.570;172.580;2023-05-29T05:18:23;35.67;;;4.22;;
68854;SDS011;69984;-43.570;172.580;2023-05-29T05:20:50;31.80;;;5.35;;
68854;SDS011;69984;-43.570;172.580;2023-05-29T05:23:17;37.47;;;5.95;;
68854;SDS011;69984;-43.570;172.580;2023-05-29T05:25:44;40.33;;;5.22;;
68854;SDS011;69984;-43.570;172.580;2023-05-29T05:28:11;38.20;;;4.95;;
68854;SDS011;69984;-43.570;172.580;2023-05-29T05:30:38;24.98;;;3.63;;
68854;SDS011;69984;-43.570;172.580;2023-05-29T05:33:06;24.17;;;4.28;;
68854;SDS011;69984;-43.570;172.580;2023-05-29T05:35:33;29.70;;;4.70;;
68854;SDS011;69984;-43.570;172.580;2023-05-29T05:38:00;50.78;;;5.63;;
68854;SDS011;69984;-43.570;172.580;2023-05-29T05:40:27;43.35;;;4.97;;
68854;SDS011;69984;-43.570;172.580;2023-05-29T05:42:55;35.10;;;3.95;;
68854;SDS011;69984;-43.570;172.580;2023-05-29T05:45:22;46.00;;;4.60;;
68854;SDS011;69984;-43.570;172.580;2023-05-29T05:47:49;41.55;;;4.95;;
68854;SDS011;69984;-43.570;172.580;2023-05-29T05:50:16;33.67;;;4.30;;
68854;SDS011;69984;-43.570;172.580;2023-05-29T05:52:43;36.30;;;5.28;;
68854;SDS011;69984;-43.570;172.580;2023-05-29T05:55:11;30.45;;;4.65;;
68854;SDS011;69984;-43.570;172.580;2023-05-29T05:57:38;46.60;;;5.63;;
68854;SDS011;69984;-43.570;172.580;2023-05-29T06:00:05;29.05;;;4.93;;
68854;SDS011;69984;-43.570;172.580;2023-05-29T06:02:38;43.60;;;4.60;;
68854;SDS011;69984;-43.570;172.580;2023-05-29T06:05:10;38.53;;;5.63;;
68854;SDS011;69984;-43.570;172.580;2023-05-29T06:07:38;31.88;;;4.28;;
68854;SDS011;69984;-43.570;172.580;2023-05-29T06:10:05;42.35;;;5.78;;
68854;SDS011;69984;-43.570;172.580;2023-05-29T06:12:33;46.65;;;7.18;;
68854;SDS011;69984;-43.570;172.580;2023-05-29T06:15:01;49.55;;;5.78;;
68854;SDS011;69984;-43.570;172.580;2023-05-29T06:17:29;43.78;;;5.47;;
68854;SDS011;69984;-43.570;172.580;2023-05-29T06:19:57;43.40;;;6.53;;
68854;SDS011;69984;-43.570;172.580;2023-05-29T06:22:24;44.97;;;6.75;;
68854;SDS011;69984;-43.570;172.580;2023-05-29T06:24:51;48.03;;;6.80;;
68854;SDS011;69984;-43.570;172.580;2023-05-29T06:27:18;41.97;;;6.47;;
68854;SDS011;69984;-43.570;172.580;2023-05-29T06:29:45;49.22;;;5.43;;
68854;SDS011;69984;-43.570;172.580;2023-05-29T06:32:12;54.67;;;5.97;;
68854;SDS011;69984;-43.570;172.580;2023-05-29T06:34:40;52.03;;;7.38;;
68854;SDS011;69984;-43.570;172.580;2023-05-29T06:37:07;37.00;;;5.78;;
68854;SDS011;69984;-43.570;172.580;2023-05-29T06:39:34;40.22;;;6.38;;
68854;SDS011;69984;-43.570;172.580;2023-05-29T06:42:01;36.60;;;5.70;;
68854;SDS011;69984;-43.570;172.580;2023-05-29T06:44:29;63.90;;;7.10;;
68854;SDS011;69984;-43.570;172.580;2023-05-29T06:46:56;46.03;;;6.90;;
68854;SDS011;69984;-43.570;172.580;2023-05-29T06:49:23;39.85;;;5.95;;
68854;SDS011;69984;-43.570;172.580;2023-05-29T06:51:50;33.85;;;6.20;;
68854;SDS011;69984;-43.570;172.580;2023-05-29T06:54:17;50.03;;;6.07;;
68854;SDS011;69984;-43.570;172.580;2023-05-29T06:56:44;41.08;;;5.85;;
68854;SDS011;69984;-43.570;172.580;2023-05-29T06:59:11;36.45;;;4.78;;
68854;SDS011;69984;-43.570;172.580;2023-05-29T07:01:38;46.97;;;4.80;;
68854;SDS011;69984;-43.570;172.580;2023-05-29T07:04:05;47.15;;;6.82;;
68854;SDS011;69984;-43.570;172.580;2023-05-29T07:06:32;52.80;;;6.45;;
68854;SDS011;69984;-43.570;172.580;2023-05-29T07:08:59;42.80;;;4.85;;
68854;SDS011;69984;-43.570;172.580;2023-05-29T07:11:26;36.25;;;5.25;;
68854;SDS011;69984;-43.570;172.580;2023-05-29T07:13:53;54.22;;;6.10;;
68854;SDS011;69984;-43.570;172.580;2023-05-29T07:16:20;44.25;;;5.28;;
68854;SDS011;69984;-43.570;172.580;2023-05-29T07:18:47;32.92;;;4.22;;
68854;SDS011;69984;-43.570;172.580;2023-05-29T07:21:16;31.30;;;5.18;;
68854;SDS011;69984;-43.570;172.580;2023-05-29T07:26:11;31.02;;;5.53;;
68854;SDS011;69984;-43.570;172.580;2023-05-29T07:28:38;37.17;;;5.88;;
68854;SDS011;69984;-43.570;172.580;2023-05-29T07:31:05;51.05;;;5.65;;
68854;SDS011;69984;-43.570;172.580;2023-05-29T07:33:32;33.17;;;4.97;;
68854;SDS011;69984;-43.570;172.580;2023-05-29T07:36:00;30.88;;;4.75;;
68854;SDS011;69984;-43.570;172.580;2023-05-29T07:38:27;47.10;;;6.20;;
68854;SDS011;69984;-43.570;172.580;2023-05-29T07:40:55;57.28;;;7.70;;
68854;SDS011;69984;-43.570;172.580;2023-05-29T07:43:23;42.85;;;5.38;;
68854;SDS011;69984;-43.570;172.580;2023-05-29T07:45:50;41.95;;;5.18;;
68854;SDS011;69984;-43.570;172.580;2023-05-29T07:48:17;47.28;;;5.70;;
68854;SDS011;69984;-43.570;172.580;2023-05-29T07:50:44;37.35;;;5.88;;
68854;SDS011;69984;-43.570;172.580;2023-05-29T07:53:11;47.75;;;5.50;;
68854;SDS011;69984;-43.570;172.580;2023-05-29T07:55:38;44.17;;;6.07;;
68854;SDS011;69984;-43.570;172.580;2023-05-29T07:58:05;45.22;;;6.13;;
68854;SDS011;69984;-43.570;172.580;2023-05-29T08:03:01;51.17;;;6.53;;
68854;SDS011;69984;-43.570;172.580;2023-05-29T08:05:29;46.00;;;6.82;;
68854;SDS011;69984;-43.570;172.580;2023-05-29T08:07:57;44.05;;;6.28;;
68854;SDS011;69984;-43.570;172.580;2023-05-29T08:10:24;54.20;;;5.93;;
68854;SDS011;69984;-43.570;172.580;2023-05-29T08:12:51;58.13;;;6.93;;
68854;SDS011;69984;-43.570;172.580;2023-05-29T08:15:18;48.80;;;6.00;;
68854;SDS011;69984;-43.570;172.580;2023-05-29T08:17:46;57.28;;;7.07;;
68854;SDS011;69984;-43.570;172.580;2023-05-29T08:20:13;34.95;;;5.57;;
68854;SDS011;69984;-43.570;172.580;2023-05-29T08:22:40;29.75;;;4.57;;
68854;SDS011;69984;-43.570;172.580;2023-05-29T08:25:07;37.85;;;4.82;;
68854;SDS011;69984;-43.570;172.580;2023-05-29T08:27:35;43.15;;;6.28;;
68854;SDS011;69984;-43.570;172.580;2023-05-29T08:30:02;37.28;;;5.72;;
68854;SDS011;69984;-43.570;172.580;2023-05-29T08:32:30;35.03;;;4.32;;
68854;SDS011;69984;-43.570;172.580;2023-05-29T08:34:57;43.28;;;4.75;;
68854;SDS011;69984;-43.570;172.580;2023-05-29T08:37:24;43.42;;;5.45;;
68854;SDS011;69984;-43.570;172.580;2023-05-29T08:39:51;35.65;;;5.00;;
68854;SDS011;69984;-43.570;172.580;2023-05-29T08:42:32;36.47;;;5.00;;
68854;SDS011;69984;-43.570;172.580;2023-05-29T08:45:05;35.65;;;6.40;;
68854;SDS011;69984;-43.570;172.580;2023-05-29T08:47:37;39.53;;;5.40;;
68854;SDS011;69984;-43.570;172.580;2023-05-29T08:50:07;35.83;;;5.82;;
68854;SDS011;69984;-43.570;172.580;2023-05-29T08:52:35;44.05;;;5.15;;
68854;SDS011;69984;-43.570;172.580;2023-05-29T08:55:04;41.78;;;4.95;;
68854;SDS011;69984;-43.570;172.580;2023-05-29T08:57:32;38.22;;;5.18;;
68854;SDS011;69984;-43.570;172.580;2023-05-29T09:00:04;29.70;;;4.43;;
68854;SDS011;69984;-43.570;172.580;2023-05-29T09:02:39;31.95;;;5.43;;
68854;SDS011;69984;-43.570;172.580;2023-05-29T09:05:06;20.08;;;3.63;;
68854;SDS011;69984;-43.570;172.580;2023-05-29T09:07:35;40.67;;;5.20;;
68854;SDS011;69984;-43.570;172.580;2023-05-29T09:10:07;38.40;;;5.45;;
68854;SDS011;69984;-43.570;172.580;2023-05-29T09:12:35;29.63;;;4.55;;
68854;SDS011;69984;-43.570;172.580;2023-05-29T09:15:03;38.35;;;4.53;;
68854;SDS011;69984;-43.570;172.580;2023-05-29T09:17:34;31.30;;;3.53;;
68854;SDS011;69984;-43.570;172.580;2023-05-29T09:20:01;40.63;;;5.28;;
68854;SDS011;69984;-43.570;172.580;2023-05-29T09:22:30;27.45;;;4.28;;
68854;SDS011;69984;-43.570;172.580;2023-05-29T09:24:57;30.58;;;4.82;;
68854;SDS011;69984;-43.570;172.580;2023-05-29T09:27:25;31.48;;;5.63;;
68854;SDS011;69984;-43.570;172.580;2023-05-29T09:29:52;40.70;;;4.75;;
68854;SDS011;69984;-43.570;172.580;2023-05-29T09:32:19;26.23;;;4.30;;
68854;SDS011;69984;-43.570;172.580;2023-05-29T09:34:47;31.80;;;3.65;;
68854;SDS011;69984;-43.570;172.580;2023-05-29T09:37:14;59.22;;;5.53;;
68854;SDS011;69984;-43.570;172.580;2023-05-29T09:39:50;37.55;;;3.92;;
68854;SDS011;69984;-43.570;172.580;2023-05-29T09:42:17;28.83;;;2.83;;
68854;SDS011;69984;-43.570;172.580;2023-05-29T09:44:45;20.58;;;3.13;;
68854;SDS011;69984;-43.570;172.580;2023-05-29T09:47:19;21.58;;;4.28;;
68854;SDS011;69984;-43.570;172.580;2023-05-29T09:49:47;29.30;;;3.10;;
68854;SDS011;69984;-43.570;172.580;2023-05-29T09:52:15;20.77;;;3.20;;
68854;SDS011;69984;-43.570;172.580;2023-05-29T09:54:47;20.92;;;3.08;;
68854;SDS011;69984;-43.570;172.580;2023-05-29T09:57:17;20.30;;;3.03;;
68854;SDS011;69984;-43.570;172.580;2023-05-29T09:59:44;25.85;;;3.00;;
68854;SDS011;69984;-43.570;172.580;2023-05-29T10:02:16;22.42;;;3.13;;
68854;SDS011;69984;-43.570;172.580;2023-05-29T10:04:44;34.92;;;2.60;;
68854;SDS011;69984;-43.570;172.580;2023-05-29T10:07:20;21.38;;;3.55;;
68854;SDS011;69984;-43.570;172.580;2023-05-29T10:10:05;23.15;;;2.95;;
68854;SDS011;69984;-43.570;172.580;2023-05-29T10:12:36;27.85;;;4.15;;
68854;SDS011;69984;-43.570;172.580;2023-05-29T10:15:06;24.55;;;3.20;;
68854;SDS011;69984;-43.570;172.580;2023-05-29T10:18:02;20.08;;;3.33;;
68854;SDS011;69984;-43.570;172.580;2023-05-29T10:20:31;15.73;;;3.13;;
68854;SDS011;69984;-43.570;172.580;2023-05-29T10:23:00;18.48;;;3.30;;
68854;SDS011;69984;-43.570;172.580;2023-05-29T10:25:29;23.33;;;3.22;;
68854;SDS011;69984;-43.570;172.580;2023-05-29T10:27:59;28.35;;;3.20;;
68854;SDS011;69984;-43.570;172.580;2023-05-29T10:36:07;16.02;;;3.10;;
68854;SDS011;69984;-43.570;172.580;2023-05-29T10:38:40;26.40;;;3.50;;
68854;SDS011;69984;-43.570;172.580;2023-05-29T10:47:00;36.60;;;5.13;;
68854;SDS011;69984;-43.570;172.580;2023-05-29T10:49:19;29.75;;;5.05;;
68854;SDS011;69984;-43.570;172.580;2023-05-29T10:51:47;32.88;;;5.00;;
68854;SDS011;69984;-43.570;172.580;2023-05-29T10:54:15;30.67;;;4.38;;
68854;SDS011;69984;-43.570;172.580;2023-05-29T10:56:44;33.78;;;4.57;;
68854;SDS011;69984;-43.570;172.580;2023-05-29T10:59:18;35.50;;;5.80;;
68854;SDS011;69984;-43.570;172.580;2023-05-29T11:01:45;36.10;;;3.92;;
68854;SDS011;69984;-43.570;172.580;2023-05-29T11:06:52;41.88;;;4.90;;
68854;SDS011;69984;-43.570;172.580;2023-05-29T11:09:33;34.42;;;4.35;;
68854;SDS011;69984;-43.570;172.580;2023-05-29T11:15:05;32.78;;;5.25;;
68854;SDS011;69984;-43.570;172.580;2023-05-29T11:20:13;31.55;;;4.13;;
68854;SDS011;69984;-43.570;172.580;2023-05-29T11:23:04;39.13;;;4.75;;
68854;SDS011;69984;-43.570;172.580;2023-05-29T11:25:36;42.00;;;6.22;;
68854;SDS011;69984;-43.570;172.580;2023-05-29T11:28:03;41.20;;;6.35;;
68854;SDS011;69984;-43.570;172.580;2023-05-29T11:30:42;33.92;;;5.20;;
68854;SDS011;69984;-43.570;172.580;2023-05-29T11:33:22;38.78;;;6.47;;
68854;SDS011;69984;-43.570;172.580;2023-05-29T11:35:55;38.35;;;5.85;;
68854;SDS011;69984;-43.570;172.580;2023-05-29T11:38:24;53.38;;;6.53;;
68854;SDS011;69984;-43.570;172.580;2023-05-29T11:40:55;49.28;;;7.35;;
68854;SDS011;69984;-43.570;172.580;2023-05-29T11:43:24;40.67;;;7.38;;
68854;SDS011;69984;-43.570;172.580;2023-05-29T11:45:51;38.35;;;6.82;;
68854;SDS011;69984;-43.570;172.580;2023-05-29T11:48:19;29.50;;;4.82;;
68854;SDS011;69984;-43.570;172.580;2023-05-29T11:50:47;9.60;;;1.80;;
68854;SDS011;69984;-43.570;172.580;2023-05-29T11:53:14;9.77;;;1.20;;
68854;SDS011;69984;-43.570;172.580;2023-05-29T11:55:41;11.68;;;1.48;;
68854;SDS011;69984;-43.570;172.580;2023-05-29T11:58:09;9.18;;;1.48;;
68854;SDS011;69984;-43.570;172.580;2023-05-29T12:00:37;11.93;;;1.98;;
68854;SDS011;69984;-43.570;172.580;2023-05-29T12:03:06;7.40;;;1.83;;
68854;SDS011;69984;-43.570;172.580;2023-05-29T12:05:54;4.53;;;1.10;;
68854;SDS011;69984;-43.570;172.580;2023-05-29T12:08:21;6.80;;;1.15;;
68854;SDS011;69984;-43.570;172.580;2023-05-29T12:10:50;6.45;;;0.95;;
68854;SDS011;69984;-43.570;172.580;2023-05-29T12:13:18;2.28;;;0.70;;
68854;SDS011;69984;-43.570;172.580;2023-05-29T12:15:46;2.20;;;0.73;;
68854;SDS011;69984;-43.570;172.580;2023-05-29T12:18:15;3.88;;;0.80;;
68854;SDS011;69984;-43.570;172.580;2023-05-29T12:20:42;1.75;;;0.60;;
68854;SDS011;69984;-43.570;172.580;2023-05-29T12:23:09;6.38;;;0.80;;
68854;SDS011;69984;-43.570;172.580;2023-05-29T12:25:39;3.88;;;0.93;;
68854;SDS011;69984;-43.570;172.580;2023-05-29T12:28:08;2.17;;;0.70;;
68854;SDS011;69984;-43.570;172.580;2023-05-29T12:30:41;2.75;;;0.57;;
68854;SDS011;69984;-43.570;172.580;2023-05-29T12:33:09;2.95;;;0.50;;
68854;SDS011;69984;-43.570;172.580;2023-05-29T12:35:50;4.00;;;0.70;;
68854;SDS011;69984;-43.570;172.580;2023-05-29T12:38:18;2.40;;;0.55;;
68854;SDS011;69984;-43.570;172.580;2023-05-29T12:40:47;1.30;;;0.47;;
68854;SDS011;69984;-43.570;172.580;2023-05-29T12:43:15;1.27;;;0.47;;
68854;SDS011;69984;-43.570;172.580;2023-05-29T12:45:42;1.80;;;0.60;;
68854;SDS011;69984;-43.570;172.580;2023-05-29T12:48:10;2.50;;;1.05;;
68854;SDS011;69984;-43.570;172.580;2023-05-29T12:50:37;2.17;;;0.60;;
68854;SDS011;69984;-43.570;172.580;2023-05-29T12:53:06;1.58;;;0.30;;
68854;SDS011;69984;-43.570;172.580;2023-05-29T12:55:35;1.48;;;0.50;;
68854;SDS011;69984;-43.570;172.580;2023-05-29T12:58:07;2.10;;;0.70;;
68854;SDS011;69984;-43.570;172.580;2023-05-29T13:00:37;3.20;;;0.57;;
68854;SDS011;69984;-43.570;172.580;2023-05-29T13:03:06;8.52;;;1.30;;
68854;SDS011;69984;-43.570;172.580;2023-05-29T13:05:34;7.57;;;1.40;;
68854;SDS011;69984;-43.570;172.580;2023-05-29T13:08:01;5.28;;;1.17;;
68854;SDS011;69984;-43.570;172.580;2023-05-29T13:10:31;5.22;;;1.10;;
68854;SDS011;69984;-43.570;172.580;2023-05-29T13:13:00;5.32;;;0.85;;
68854;SDS011;69984;-43.570;172.580;2023-05-29T13:15:27;22.15;;;1.35;;
68854;SDS011;69984;-43.570;172.580;2023-05-29T13:17:54;5.63;;;1.40;;
68854;SDS011;69984;-43.570;172.580;2023-05-29T13:20:21;7.90;;;1.17;;
68854;SDS011;69984;-43.570;172.580;2023-05-29T13:22:48;6.63;;;1.20;;
68854;SDS011;69984;-43.570;172.580;2023-05-29T13:25:16;5.38;;;1.02;;
68854;SDS011;69984;-43.570;172.580;2023-05-29T13:27:47;6.60;;;1.25;;
68854;SDS011;69984;-43.570;172.580;2023-05-29T13:30:15;11.43;;;1.48;;
68854;SDS011;69984;-43.570;172.580;2023-05-29T13:32:43;11.85;;;1.23;;
68854;SDS011;69984;-43.570;172.580;2023-05-29T13:35:10;8.35;;;1.60;;
68854;SDS011;69984;-43.570;172.580;2023-05-29T13:37:38;9.93;;;1.60;;
68854;SDS011;69984;-43.570;172.580;2023-05-29T13:40:06;4.93;;;1.42;;
68854;SDS011;69984;-43.570;172.580;2023-05-29T13:42:38;9.70;;;2.08;;
68854;SDS011;69984;-43.570;172.580;2023-05-29T13:45:07;9.48;;;1.40;;
68854;SDS011;69984;-43.570;172.580;2023-05-29T13:47:35;4.43;;;1.20;;
68854;SDS011;69984;-43.570;172.580;2023-05-29T13:50:02;13.00;;;1.60;;
68854;SDS011;69984;-43.570;172.580;2023-05-29T13:52:30;6.40;;;0.93;;
68854;SDS011;69984;-43.570;172.580;2023-05-29T13:54:57;15.07;;;1.67;;
68854;SDS011;69984;-43.570;172.580;2023-05-29T13:57:30;14.40;;;2.17;;
68854;SDS011;69984;-43.570;172.580;2023-05-29T13:59:57;3.35;;;1.00;;
68854;SDS011;69984;-43.570;172.580;2023-05-29T14:02:24;10.10;;;1.45;;
68854;SDS011;69984;-43.570;172.580;2023-05-29T14:04:51;6.22;;;1.00;;
68854;SDS011;69984;-43.570;172.580;2023-05-29T14:07:18;4.65;;;1.02;;
68854;SDS011;69984;-43.570;172.580;2023-05-29T14:09:45;8.50;;;0.90;;
68854;SDS011;69984;-43.570;172.580;2023-05-29T14:12:12;3.80;;;0.98;;
68854;SDS011;69984;-43.570;172.580;2023-05-29T14:14:39;8.02;;;0.93;;
68854;SDS011;69984;-43.570;172.580;2023-05-29T14:17:06;1.42;;;0.52;;
68854;SDS011;69984;-43.570;172.580;2023-05-29T14:19:34;2.40;;;0.40;;
68854;SDS011;69984;-43.570;172.580;2023-05-29T14:22:01;0.57;;;0.30;;
68854;SDS011;69984;-43.570;172.580;2023-05-29T14:24:28;0.82;;;0.50;;
68854;SDS011;69984;-43.570;172.580;2023-05-29T14:26:55;0.60;;;0.35;;
68854;SDS011;69984;-43.570;172.580;2023-05-29T14:29:22;5.25;;;0.75;;
68854;SDS011;69984;-43.570;172.580;2023-05-29T14:31:49;1.52;;;0.28;;
68854;SDS011;69984;-43.570;172.580;2023-05-29T14:34:16;2.05;;;0.28;;
68854;SDS011;69984;-43.570;172.580;2023-05-29T14:36:43;2.33;;;0.35;;